createdAt,value
2016-06-03T00:08:14.237Z,92.39
2016-06-03T00:23:14.293Z,92.64
2016-06-03T00:38:14.255Z,92.92
2016-06-03T00:53:18.499Z,92.92
2016-06-03T01:08:16.305Z,93.1
2016-06-03T01:23:14.299Z,92.93
2016-06-03T01:38:20.573Z,92.54
2016-06-03T01:53:22.395Z,92.53
2016-06-03T02:08:22.606Z,92.36
2016-06-03T02:23:14.256Z,92.79
2016-06-03T02:38:15.140Z,92.89
2016-06-03T02:53:14.274Z,93.26
2016-06-03T03:08:14.331Z,93.2
2016-06-03T03:23:15.106Z,93.59
2016-06-03T03:38:16.411Z,93.33
2016-06-03T03:53:16.405Z,93.38
2016-06-03T04:08:14.243Z,93.83
2016-06-03T04:23:18.689Z,94.22
2016-06-03T04:38:14.291Z,94.58
2016-06-03T04:53:14.316Z,94.37
2016-06-03T05:08:16.419Z,94.63
2016-06-03T05:23:24.725Z,94.29
2016-06-03T05:38:22.702Z,94.84
2016-06-03T05:53:24.711Z,94.97
2016-06-03T06:08:16.377Z,95.23
2016-06-03T06:23:14.387Z,95.34
2016-06-03T06:38:20.646Z,95.06
2016-06-03T06:53:18.669Z,95.02
2016-06-03T07:08:14.499Z,95.02
2016-06-03T07:23:18.839Z,94.09
2016-06-03T07:38:16.645Z,90.89
2016-06-03T07:53:16.716Z,88.89
2016-06-03T08:08:14.569Z,82.67
2016-06-03T08:23:14.562Z,84.32
2016-06-03T08:38:24.838Z,78.38
2016-06-03T08:53:16.736Z,77.04
2016-06-03T09:08:16.668Z,75.71
2016-06-03T09:23:14.553Z,77.9
2016-06-03T09:38:15.452Z,77.59
2016-06-03T09:53:16.742Z,76.36
2016-06-03T10:08:20.876Z,72
2016-06-03T10:23:20.948Z,66.29
2016-06-03T10:38:18.692Z,72.26
2016-06-03T10:53:14.653Z,68.79
2016-06-03T11:08:16.694Z,67.22
2016-06-03T11:23:14.671Z,67.96
2016-06-03T11:38:14.697Z,66.35
2016-06-03T11:53:27.081Z,58.87
2016-06-03T12:08:16.808Z,63.52
2016-06-03T12:23:16.708Z,60.06
2016-06-03T12:38:20.967Z,59.39
2016-06-03T12:53:14.601Z,59.35
2016-06-03T13:08:14.658Z,59.3
2016-06-03T13:23:16.807Z,62.48
2016-06-03T13:38:28.004Z,64.8
2016-06-03T13:53:18.935Z,61.1
2016-06-03T14:08:14.629Z,63.77
2016-06-03T14:23:16.797Z,65.98
2016-06-03T14:38:18.853Z,68.46
2016-06-03T14:53:21.033Z,67.08
2016-06-03T15:08:16.789Z,63.1
2016-06-03T15:23:16.705Z,58.75
2016-06-03T15:38:16.871Z,61.71
2016-06-03T15:53:29.536Z,61.84
2016-06-03T16:08:14.856Z,61.25
2016-06-03T16:23:14.922Z,58.92
2016-06-03T16:38:17.055Z,57.82
2016-06-03T16:53:17.049Z,58.24
2016-06-03T17:08:17.042Z,60.5
2016-06-03T17:23:21.224Z,61.67
2016-06-03T17:38:23.392Z,58.78
2016-06-03T17:53:19.148Z,62.97
2016-06-03T18:08:16.939Z,65.54
2016-06-03T18:23:14.979Z,67.2
2016-06-03T18:38:19.129Z,66.28
2016-06-03T18:53:23.388Z,64.74
2016-06-03T19:08:14.976Z,67.11
2016-06-03T19:23:21.046Z,68.23
2016-06-03T19:38:23.259Z,67.88
2016-06-03T19:53:19.049Z,68.71
2016-06-03T20:08:17.121Z,70.04
2016-06-03T20:23:21.255Z,69.32
2016-06-03T20:38:29.592Z,70.79
2016-06-03T20:53:31.854Z,73.57
2016-06-03T21:08:21.360Z,74.79
2016-06-03T21:23:25.635Z,75.54
2016-06-03T21:38:15.051Z,75.03
2016-06-03T21:53:15.013Z,76.42
2016-06-03T22:08:17.037Z,77.36
2016-06-03T22:23:17.031Z,77.53
2016-06-03T22:38:19.305Z,78.12
2016-06-03T22:53:19.095Z,79.4
2016-06-03T23:08:15.042Z,79.14
2016-06-03T23:23:15.051Z,80.18
2016-06-03T23:38:21.373Z,80.38
2016-06-03T23:53:17.117Z,80.7
